Time;durP1;ratioP1;P1;durP2;ratioP2;P2;SDS_P1;SDS_P2;PMS_P1;PMS_P2;Temp;Humidity;BMP_temperature;BMP_pressure;BME280_temperature;BME280_humidity;BME280_pressure;Samples;Min_cycle;Max_cycle;Signal;HPM_P1;HPM_P2
2024/03/15 00:01:04;;;;;;;1.38;0.57;;;12.40;99.90;;;;;;4988268;28;20077;-77
2024/03/15 00:03:31;;;;;;;0.80;0.57;;;12.40;99.90;;;;;;4988107;28;20057;-78
2024/03/15 00:05:58;;;;;;;0.40;0.40;;;12.40;99.90;;;;;;5020471;28;20060;-77
2024/03/15 00:08:26;;;;;;;0.82;0.65;;;12.40;99.90;;;;;;5019860;28;20060;-77
2024/03/15 00:10:54;;;;;;;1.27;0.50;;;12.40;99.90;;;;;;5004403;28;20437;-78
2024/03/15 00:13:21;;;;;;;1.63;0.70;;;12.40;99.90;;;;;;5003624;28;20049;-77
2024/03/15 00:15:48;;;;;;;1.25;0.70;;;12.40;99.90;;;;;;5004208;28;20061;-78
2024/03/15 00:18:17;;;;;;;2.03;0.57;;;12.40;99.90;;;;;;5021993;28;20049;-78
2024/03/15 00:20:45;;;;;;;1.80;0.82;;;12.40;99.90;;;;;;5004817;28;20065;-78
2024/03/15 00:23:12;;;;;;;0.82;0.60;;;12.50;99.90;;;;;;5018978;28;20077;-78
2024/03/15 00:25:41;;;;;;;2.03;0.93;;;12.50;99.90;;;;;;5020970;28;20106;-78
2024/03/15 00:28:08;;;;;;;1.27;0.60;;;12.50;99.90;;;;;;5019984;28;20056;-78
2024/03/15 00:30:35;;;;;;;2.22;0.93;;;12.50;99.90;;;;;;4991433;28;20563;-78
2024/03/15 00:33:02;;;;;;;2.17;0.70;;;12.50;99.90;;;;;;5014776;28;20087;-78
2024/03/15 00:35:29;;;;;;;1.73;0.75;;;12.50;99.90;;;;;;5020194;28;20049;-78
2024/03/15 00:37:55;;;;;;;0.98;0.65;;;12.50;99.90;;;;;;5018731;28;20287;-78
2024/03/15 00:40:22;;;;;;;0.95;0.30;;;12.50;99.90;;;;;;5004060;28;20115;-78
2024/03/15 00:42:49;;;;;;;1.00;0.50;;;12.50;99.90;;;;;;5003300;28;20053;-78
2024/03/15 00:45:17;;;;;;;1.13;0.60;;;12.50;99.90;;;;;;4987807;28;20103;-78
2024/03/15 00:47:44;;;;;;;2.17;0.93;;;12.50;99.90;;;;;;4987925;28;20049;-79
2024/03/15 00:50:11;;;;;;;1.15;0.60;;;12.50;99.90;;;;;;5004481;28;20061;-78
2024/03/15 00:52:38;;;;;;;1.50;0.60;;;12.50;99.90;;;;;;5018374;28;20453;-78
2024/03/15 00:55:05;;;;;;;1.23;0.60;;;12.50;95.10;;;;;;5003350;28;20231;-78
2024/03/15 00:57:32;;;;;;;0.60;0.60;;;12.60;56.80;;;;;;4987352;28;20057;-77
2024/03/15 00:59:59;;;;;;;1.48;0.68;;;12.60;52.60;;;;;;5003764;28;20510;-78
2024/03/15 01:02:27;;;;;;;1.40;0.57;;;12.60;30.30;;;;;;5002564;28;20132;-77
2024/03/15 01:04:57;;;;;;;1.38;0.80;;;12.60;36.60;;;;;;5015825;28;20132;-77
2024/03/15 01:07:24;;;;;;;0.90;0.50;;;12.60;44.90;;;;;;5017849;28;20242;-75
2024/03/15 01:09:51;;;;;;;1.13;0.80;;;12.50;79.20;;;;;;5005749;28;20049;-77
2024/03/15 01:12:17;;;;;;;0.77;0.50;;;12.50;97.50;;;;;;5008637;28;20141;-77
2024/03/15 01:14:45;;;;;;;1.48;0.60;;;12.60;99.90;;;;;;5023951;28;20081;-78
2024/03/15 01:17:12;;;;;;;1.23;0.90;;;12.60;99.90;;;;;;5012294;28;20100;-78
2024/03/15 01:19:39;;;;;;;1.23;0.63;;;12.60;98.40;;;;;;5004773;28;20485;-78
2024/03/15 01:22:07;;;;;;;0.63;0.63;;;12.50;99.90;;;;;;5006384;28;20106;-77
2024/03/15 01:24:34;;;;;;;1.42;0.80;;;12.60;99.90;;;;;;5016303;28;20060;-77
2024/03/15 01:27:01;;;;;;;1.35;0.50;;;12.60;98.80;;;;;;5015025;28;20057;-77
2024/03/15 01:29:28;;;;;;;2.17;0.77;;;12.50;99.90;;;;;;4991438;28;20041;-77
2024/03/15 01:31:56;;;;;;;1.38;0.73;;;12.60;99.90;;;;;;5018311;28;20392;-78
2024/03/15 01:34:23;;;;;;;1.27;0.65;;;12.60;99.90;;;;;;5004095;28;20060;-78
2024/03/15 01:36:50;;;;;;;0.90;0.50;;;12.60;99.90;;;;;;5001793;28;20053;-77
2024/03/15 01:39:18;;;;;;;1.77;0.65;;;12.60;99.90;;;;;;5007444;28;20052;-78
2024/03/15 01:41:45;;;;;;;1.75;0.60;;;12.50;99.90;;;;;;5006846;28;20127;-78
2024/03/15 01:44:13;;;;;;;1.05;0.60;;;12.50;99.90;;;;;;5008890;28;20130;-78
2024/03/15 01:46:41;;;;;;;1.88;0.75;;;12.50;99.90;;;;;;5022131;28;20426;-78
2024/03/15 01:49:08;;;;;;;1.30;0.70;;;12.50;99.90;;;;;;5021580;28;20476;-77
2024/03/15 01:51:36;;;;;;;1.88;0.82;;;12.40;99.90;;;;;;5021722;28;20176;-78
2024/03/15 01:54:04;;;;;;;0.55;0.50;;;12.40;99.90;;;;;;5022134;28;20124;-77
2024/03/15 01:56:31;;;;;;;1.02;0.65;;;12.50;99.90;;;;;;5001979;28;20135;-77
2024/03/15 01:58:59;;;;;;;0.90;0.60;;;12.50;99.90;;;;;;5003930;28;20050;-77
2024/03/15 02:01:26;;;;;;;1.58;0.80;;;12.40;99.90;;;;;;5001664;28;20064;-77
2024/03/15 02:03:56;;;;;;;1.13;0.55;;;12.50;98.90;;;;;;4983512;28;20046;-78
2024/03/15 02:06:23;;;;;;;1.02;0.70;;;12.50;91.60;;;;;;5014604;28;20054;-77
2024/03/15 02:08:54;;;;;;;1.23;0.80;;;12.30;24.30;;;;;;4986208;28;20461;-78
2024/03/15 02:11:21;;;;;;;1.73;0.70;;;12.40;1.00;;;;;;5004298;28;20164;-78
2024/03/15 02:13:48;;;;;;;1.42;0.80;;;12.40;1.00;;;;;;5003702;28;20057;-79
2024/03/15 02:16:15;;;;;;;1.23;0.90;;;12.40;1.00;;;;;;5011119;28;20050;-79
2024/03/15 02:18:43;;;;;;;0.82;0.50;;;12.40;1.00;;;;;;5004898;28;20106;-79
2024/03/15 02:21:11;;;;;;;2.15;1.00;;;12.40;1.00;;;;;;4997592;28;20563;-78
2024/03/15 02:23:39;;;;;;;2.33;1.10;;;12.50;1.00;;;;;;5005769;28;20073;-78
2024/03/15 02:26:07;;;;;;;1.13;0.80;;;12.40;1.00;;;;;;4987266;28;20566;-78
2024/03/15 02:28:34;;;;;;;2.33;0.70;;;12.40;1.00;;;;;;4987063;28;20050;-77
2024/03/15 02:31:06;;;;;;;2.33;0.70;;;12.30;1.00;;;;;;5014340;23;20116;-88
2024/03/15 02:33:35;;;;;;;1.58;0.80;;;12.30;1.00;;;;;;4957025;28;20101;-88
2024/03/15 02:36:10;;;;;;;0.50;0.50;;;12.20;1.00;;;;;;4958083;28;20142;-88
2024/03/15 02:38:37;;;;;;;1.13;0.70;;;12.10;10.80;;;;;;4986878;28;20054;-88
2024/03/15 02:41:09;;;;;;;1.48;1.05;;;12.10;15.00;;;;;;4962536;28;20054;-87
2024/03/15 02:43:36;;;;;;;1.05;0.50;;;12.00;16.60;;;;;;4963777;28;20460;-88
2024/03/15 02:46:03;;;;;;;1.50;0.77;;;12.00;1.00;;;;;;4994287;28;20077;-87
2024/03/15 02:48:38;;;;;;;2.97;1.13;;;12.00;1.00;;;;;;4993874;28;20050;-88
2024/03/15 02:51:05;;;;;;;1.30;0.82;;;12.00;1.00;;;;;;4982430;28;20050;-87
2024/03/15 02:53:34;;;;;;;1.33;0.65;;;12.10;4.30;;;;;;4983142;28;20078;-88
2024/03/15 02:56:09;;;;;;;1.40;0.88;;;12.10;6.40;;;;;;4991397;28;20149;-87
2024/03/15 02:58:36;;;;;;;2.03;1.10;;;12.10;1.00;;;;;;4976457;28;20431;-87
2024/03/15 03:01:05;;;;;;;3.88;1.00;;;12.10;1.00;;;;;;4982129;28;20057;-88
2024/03/15 03:03:41;;;;;;;3.42;1.10;;;12.20;1.00;;;;;;4982809;28;20153;-87
2024/03/15 03:06:10;;;;;;;1.40;0.93;;;12.10;1.00;;;;;;4984266;28;20042;-88
2024/03/15 03:08:38;;;;;;;2.15;1.00;;;12.20;1.00;;;;;;4993424;28;20489;-88
2024/03/15 03:11:11;;;;;;;2.53;1.50;;;12.20;1.00;;;;;;5010774;28;20046;-87
2024/03/15 03:13:41;;;;;;;1.42;0.88;;;12.10;1.00;;;;;;4989333;28;20050;-88
2024/03/15 03:16:10;;;;;;;1.75;1.00;;;12.10;1.00;;;;;;4974253;28;20046;-88
2024/03/15 03:18:46;;;;;;;2.25;0.80;;;12.10;1.00;;;;;;4973800;28;20058;-88
2024/03/15 03:21:21;;;;;;;2.58;0.80;;;12.00;1.00;;;;;;4972492;28;20054;-88
2024/03/15 03:23:57;;;;;;;2.58;1.02;;;12.00;1.00;;;;;;4986974;28;20377;-88
2024/03/15 03:26:25;;;;;;;2.88;1.00;;;12.00;1.00;;;;;;4963655;28;20077;-88
2024/03/15 03:28:52;;;;;;;1.15;0.73;;;12.00;23.10;;;;;;4987178;28;20109;-88
2024/03/15 03:31:22;;;;;;;1.67;0.90;;;12.00;99.90;;;;;;4974609;28;20051;-88
2024/03/15 03:33:50;;;;;;;1.45;1.00;;;12.00;99.90;;;;;;4996025;28;20062;-88
2024/03/15 03:36:28;;;;;;;1.63;0.63;;;12.00;99.90;;;;;;4986012;28;20096;-88
2024/03/15 03:39:00;;;;;;;1.58;0.77;;;11.90;99.90;;;;;;4976063;28;20120;-88
2024/03/15 03:41:29;;;;;;;3.10;0.90;;;11.90;99.90;;;;;;5008846;28;20093;-88
2024/03/15 03:43:57;;;;;;;1.15;0.70;;;11.80;99.90;;;;;;4989465;28;20539;-88
2024/03/15 03:46:26;;;;;;;1.70;1.00;;;11.80;99.90;;;;;;5003854;28;20054;-88
2024/03/15 03:48:53;;;;;;;1.27;0.65;;;11.70;99.90;;;;;;4980756;28;20806;-85
2024/03/15 03:51:23;;;;;;;2.40;0.93;;;11.70;99.90;;;;;;4997392;28;20149;-87
2024/03/15 03:53:51;;;;;;;1.00;0.60;;;11.70;99.90;;;;;;4985585;28;20125;-86
2024/03/15 03:56:20;;;;;;;1.63;0.63;;;11.60;99.90;;;;;;4969162;28;20062;-86
2024/03/15 03:58:47;;;;;;;2.83;0.80;;;11.70;99.90;;;;;;4982875;28;20501;-87
2024/03/15 04:01:15;;;;;;;1.75;0.60;;;11.70;99.90;;;;;;4974355;28;20046;-87
2024/03/15 04:03:48;;;;;;;4.63;0.90;;;11.70;99.90;;;;;;4996105;28;20452;-86
2024/03/15 04:06:17;;;;;;;1.63;0.70;;;11.70;99.90;;;;;;4989578;28;20060;-87
2024/03/15 04:08:44;;;;;;;3.25;0.80;;;11.80;99.90;;;;;;4960726;28;20050;-85
2024/03/15 04:11:11;;;;;;;0.75;0.60;;;11.70;99.90;;;;;;5006825;28;20046;-85
2024/03/15 04:13:40;;;;;;;1.08;0.85;;;11.80;99.90;;;;;;4989220;28;20057;-87
2024/03/15 04:16:08;;;;;;;0.75;0.60;;;11.80;99.90;;;;;;4992031;28;20046;-86
2024/03/15 04:18:36;;;;;;;1.83;0.40;;;11.80;99.90;;;;;;4991974;28;20156;-86
2024/03/15 04:21:05;;;;;;;1.95;0.80;;;11.80;99.90;;;;;;5007133;28;20124;-86
2024/03/15 04:23:33;;;;;;;2.38;0.70;;;11.80;99.90;;;;;;4989462;28;20132;-86
2024/03/15 04:26:00;;;;;;;1.30;0.65;;;11.90;99.90;;;;;;4979301;28;20199;-86
2024/03/15 04:28:28;;;;;;;1.83;0.75;;;11.90;99.90;;;;;;5000651;28;20054;-86
2024/03/15 04:30:58;;;;;;;2.22;0.75;;;11.90;99.90;;;;;;4983257;28;20571;-87
2024/03/15 04:33:25;;;;;;;2.25;0.80;;;11.90;99.90;;;;;;4983375;28;20046;-86
2024/03/15 04:35:55;;;;;;;2.22;0.75;;;11.90;99.90;;;;;;4981458;28;20434;-87
2024/03/15 04:38:25;;;;;;;2.00;0.77;;;11.90;99.90;;;;;;5002453;28;20052;-87
2024/03/15 04:41:09;;;;;;;1.85;0.88;;;11.80;99.90;;;;;;4997654;28;20178;-86
2024/03/15 04:43:38;;;;;;;1.35;0.65;;;11.90;99.90;;;;;;4976339;28;20054;-87
2024/03/15 04:46:05;;;;;;;2.13;0.65;;;11.90;99.90;;;;;;4972034;28;20112;-86
2024/03/15 04:48:32;;;;;;;1.05;0.57;;;11.80;99.90;;;;;;4983647;28;20054;-86
2024/03/15 04:51:01;;;;;;;1.75;0.90;;;11.80;99.90;;;;;;4987223;28;20531;-86
2024/03/15 04:53:30;;;;;;;2.35;0.90;;;11.80;99.90;;;;;;4985727;28;20054;-87
2024/03/15 04:55:58;;;;;;;3.22;0.98;;;11.80;99.90;;;;;;4982088;28;20046;-87
2024/03/15 04:58:30;;;;;;;2.42;1.13;;;11.80;1.00;;;;;;4996796;28;20049;-87
2024/03/15 05:01:00;;;;;;;2.60;0.90;;;11.80;1.00;;;;;;4985190;28;20079;-87
2024/03/15 05:03:32;;;;;;;3.10;0.85;;;11.80;1.00;;;;;;4980378;28;20042;-86
2024/03/15 05:05:59;;;;;;;2.03;1.25;;;11.80;1.00;;;;;;4972358;28;20504;-86
2024/03/15 05:08:29;;;;;;;2.15;1.00;;;11.80;1.00;;;;;;4976056;28;20070;-86
2024/03/15 05:11:01;;;;;;;1.85;0.60;;;11.80;1.00;;;;;;4975502;28;20122;-86
2024/03/15 05:13:31;;;;;;;1.40;0.70;;;11.80;11.30;;;;;;4960944;28;20134;-86
2024/03/15 05:15:59;;;;;;;1.17;0.88;;;11.90;32.00;;;;;;4979048;28;20290;-87
2024/03/15 05:18:29;;;;;;;1.67;0.80;;;11.90;99.90;;;;;;4992101;28;20441;-86
2024/03/15 05:20:57;;;;;;;0.93;0.65;;;11.90;99.90;;;;;;4987914;28;20485;-86
2024/03/15 05:23:25;;;;;;;1.17;0.60;;;11.90;99.90;;;;;;4979363;28;20073;-87
2024/03/15 05:25:56;;;;;;;0.75;0.50;;;11.90;99.90;;;;;;4987776;28;20066;-87
2024/03/15 05:28:32;;;;;;;1.38;0.68;;;11.90;1.00;;;;;;4971920;28;20136;-86
2024/03/15 05:31:03;;;;;;;1.27;0.52;;;11.90;99.90;;;;;;4997923;28;20595;-86
2024/03/15 05:33:36;;;;;;;2.13;0.70;;;11.80;84.70;;;;;;5007964;28;20157;-87
2024/03/15 05:36:03;;;;;;;5.03;1.25;;;11.80;1.00;;;;;;4990951;28;20053;-86
2024/03/15 05:38:31;;;;;;;2.63;1.10;;;11.80;1.00;;;;;;4982602;28;20501;-87
2024/03/15 05:40:58;;;;;;;1.98;0.85;;;11.90;99.90;;;;;;4969730;28;20049;-86
2024/03/15 05:43:26;;;;;;;1.58;0.80;;;11.90;99.90;;;;;;4985570;28;20046;-87
2024/03/15 05:45:54;;;;;;;1.95;0.68;;;11.90;99.90;;;;;;5004002;28;20064;-85
2024/03/15 05:48:22;;;;;;;1.52;0.50;;;11.90;37.10;;;;;;4983250;28;20141;-87
2024/03/15 05:50:49;;;;;;;0.95;0.52;;;11.90;21.60;;;;;;4965559;28;20494;-86
2024/03/15 05:53:24;;;;;;;2.42;1.10;;;11.90;22.50;;;;;;4999814;28;20085;-86
2024/03/15 05:55:52;;;;;;;3.15;0.80;;;11.80;72.10;;;;;;4999069;28;20496;-86
2024/03/15 05:58:20;;;;;;;2.40;0.90;;;11.90;95.20;;;;;;4993209;28;20092;-85
2024/03/15 06:00:48;;;;;;;1.77;0.80;;;11.90;99.90;;;;;;4987734;28;20041;-85
2024/03/15 06:03:24;;;;;;;1.38;0.50;;;11.90;99.90;;;;;;4964918;28;20141;-86
2024/03/15 06:05:53;;;;;;;1.90;0.60;;;11.90;5.80;;;;;;4997014;28;20057;-87
2024/03/15 06:08:26;;;;;;;1.00;0.65;;;11.90;1.00;;;;;;4961153;28;20084;-85
2024/03/15 06:10:53;;;;;;;1.55;0.70;;;11.90;1.00;;;;;;4981706;28;20062;-83
2024/03/15 06:13:20;;;;;;;1.05;0.80;;;11.80;1.00;;;;;;4979809;28;20515;-83
2024/03/15 06:15:48;;;;;;;2.28;0.85;;;11.80;4.00;;;;;;4982979;28;20058;-81
2024/03/15 06:18:16;;;;;;;1.15;0.80;;;11.70;1.00;;;;;;4966084;28;20100;-81
2024/03/15 06:20:44;;;;;;;2.53;0.60;;;11.80;18.90;;;;;;4983736;28;20060;-81
2024/03/15 06:23:12;;;;;;;1.88;0.50;;;11.80;4.70;;;;;;4982387;28;20140;-81
2024/03/15 06:25:40;;;;;;;0.73;0.57;;;11.90;1.00;;;;;;4989571;28;20523;-90
2024/03/15 06:28:11;;;;;;;1.98;0.65;;;11.90;1.00;;;;;;4982598;28;20042;-89
2024/03/15 06:30:47;;;;;;;1.08;0.50;;;11.90;1.00;;;;;;5002917;28;20073;-88
2024/03/15 06:33:15;;;;;;;0.60;0.50;;;12.00;99.90;;;;;;4977262;28;20061;-88
2024/03/15 06:35:52;;;;;;;1.08;0.65;;;12.00;99.90;;;;;;4981790;28;20298;-88
2024/03/15 06:38:30;;;;;;;1.25;0.50;;;12.00;99.90;;;;;;4997133;28;20061;-88
2024/03/15 06:41:13;;;;;;;1.92;0.70;;;12.00;99.90;;;;;;4979478;28;20057;-89
2024/03/15 06:49:24;;;;;;;2.85;0.80;;;12.10;99.90;;;;;;4973630;28;20485;-86
2024/03/15 06:54:41;;;;;;;1.65;0.60;;;12.20;64.00;;;;;;4994273;28;20054;-85
2024/03/15 06:57:09;;;;;;;1.70;0.80;;;12.20;57.40;;;;;;4985247;28;20057;-84
2024/03/15 06:59:36;;;;;;;1.33;0.77;;;12.20;1.00;;;;;;4966168;28;20046;-83
2024/03/15 07:02:09;;;;;;;2.00;0.90;;;12.30;1.00;;;;;;4962440;28;20054;-84
2024/03/15 07:04:35;;;;;;;2.72;0.95;;;12.20;43.50;;;;;;4986161;28;20050;-90
2024/03/15 07:07:02;;;;;;;1.67;0.60;;;12.30;1.00;;;;;;4966290;28;20053;-88
2024/03/15 07:09:32;;;;;;;2.40;0.65;;;12.30;99.90;;;;;;4975462;28;20050;-92
2024/03/15 07:12:01;;;;;;;0.60;0.50;;;12.20;99.90;;;;;;4982781;28;20906;-84
2024/03/15 07:14:29;;;;;;;0.52;0.52;;;12.20;99.90;;;;;;5000979;28;20057;-88
2024/03/15 07:16:57;;;;;;;0.80;0.40;;;12.10;1.00;;;;;;4988455;28;20053;-86
2024/03/15 07:19:24;;;;;;;0.47;0.30;;;12.10;1.00;;;;;;4979868;28;20050;-84
2024/03/15 07:21:51;;;;;;;0.40;0.40;;;12.10;16.00;;;;;;4976029;28;20050;-84
2024/03/15 07:24:20;;;;;;;0.93;0.50;;;12.10;1.00;;;;;;4985666;28;20049;-84
2024/03/15 07:26:48;;;;;;;0.82;0.40;;;12.10;1.00;;;;;;4980958;28;20042;-87
2024/03/15 07:29:19;;;;;;;0.50;0.50;;;12.10;99.90;;;;;;4979282;28;20413;-86
2024/03/15 07:31:54;;;;;;;0.55;0.50;;;12.10;99.90;;;;;;4999269;28;20050;-88
2024/03/15 07:34:26;;;;;;;0.77;0.50;;;12.10;99.90;;;;;;5002185;28;20100;-88
2024/03/15 07:37:01;;;;;;;0.57;0.57;;;12.10;88.90;;;;;;4990306;28;20377;-88
2024/03/15 07:39:32;;;;;;;0.50;0.50;;;12.20;1.00;;;;;;4989787;28;20072;-88
2024/03/15 07:41:59;;;;;;;0.65;0.50;;;12.20;1.00;;;;;;4978582;28;20191;-89
2024/03/15 07:44:28;;;;;;;0.95;0.40;;;12.30;1.00;;;;;;4971360;28;20058;-89
2024/03/15 07:47:01;;;;;;;1.15;0.50;;;12.40;99.90;;;;;;5003979;28;20540;-89
2024/03/15 07:49:35;;;;;;;0.82;0.55;;;12.50;99.90;;;;;;4975810;28;20469;-90
2024/03/15 07:52:12;;;;;;;1.92;0.80;;;12.60;1.00;;;;;;4994038;28;20093;-92
2024/03/15 07:54:41;;;;;;;1.33;0.68;;;12.60;99.90;;;;;;4971680;28;20474;-90
2024/03/15 07:57:09;;;;;;;2.58;0.85;;;12.70;99.90;;;;;;4986720;28;20116;-89
2024/03/15 07:59:44;;;;;;;2.60;0.93;;;12.80;59.50;;;;;;4987612;28;20719;-89
2024/03/15 08:02:14;;;;;;;3.38;1.40;;;12.80;1.00;;;;;;5001745;28;20092;-90
2024/03/15 08:04:47;;;;;;;1.73;0.95;;;12.90;1.00;;;;;;5000898;28;20068;-88
2024/03/15 08:07:15;;;;;;;3.20;1.33;;;13.00;1.00;;;;;;5004004;28;20619;-90
2024/03/15 08:09:45;;;;;;;3.88;1.20;;;13.10;1.00;;;;;;4985789;28;20073;-93
2024/03/15 08:12:14;;;;;;;4.00;1.35;;;13.10;99.90;;;;;;4978230;28;20074;-94
2024/03/15 08:14:43;;;;;;;3.03;1.45;;;13.10;99.90;;;;;;4996053;28;20058;-94
2024/03/15 08:17:14;;;;;;;2.88;1.40;;;13.20;99.90;;;;;;5008867;28;20388;-95
2024/03/15 08:19:41;;;;;;;2.38;1.10;;;13.20;99.90;;;;;;4990850;28;20066;-93
2024/03/15 08:22:11;;;;;;;2.92;1.15;;;13.30;99.90;;;;;;4960701;28;20092;-90
2024/03/15 08:24:42;;;;;;;2.80;1.02;;;13.30;99.90;;;;;;5003793;28;20053;-88
2024/03/15 08:27:12;;;;;;;2.47;1.20;;;13.40;99.90;;;;;;4990081;28;20132;-87
2024/03/15 08:29:40;;;;;;;2.60;1.15;;;13.40;99.90;;;;;;4989455;28;20080;-88
2024/03/15 08:32:09;;;;;;;3.58;1.20;;;13.40;99.90;;;;;;4989396;28;20197;-88
2024/03/15 08:34:39;;;;;;;2.65;1.10;;;13.50;99.90;;;;;;4970559;28;20179;-88
2024/03/15 08:37:07;;;;;;;3.47;1.15;;;13.50;99.90;;;;;;4970081;28;20054;-88
2024/03/15 08:39:35;;;;;;;2.28;0.95;;;13.60;99.90;;;;;;4954371;28;20046;-87
2024/03/15 08:42:11;;;;;;;2.85;1.30;;;13.70;99.90;;;;;;4995768;28;20049;-90
2024/03/15 08:44:40;;;;;;;4.75;1.58;;;13.70;99.90;;;;;;4989019;28;20188;-92
2024/03/15 08:47:29;;;;;;;3.00;1.20;;;13.70;99.90;;;;;;5003067;28;20058;-90
2024/03/15 08:50:17;;;;;;;4.53;1.65;;;13.70;99.90;;;;;;4977280;28;20125;-92
2024/03/15 08:52:48;;;;;;;2.03;1.00;;;13.80;99.90;;;;;;4987421;28;20464;-92
2024/03/15 08:55:15;;;;;;;3.75;1.35;;;13.80;99.90;;;;;;4975440;28;20062;-92
2024/03/15 08:57:47;;;;;;;3.72;2.00;;;13.80;99.90;;;;;;4974768;28;20060;-90
2024/03/15 09:00:17;;;;;;;5.03;1.83;;;13.80;99.90;;;;;;4974744;28;20076;-92
2024/03/15 09:02:49;;;;;;;7.07;2.05;;;13.90;99.90;;;;;;4969888;28;20081;-90
2024/03/15 09:05:27;;;;;;;3.35;1.60;;;13.90;99.90;;;;;;4991229;28;20046;-92
2024/03/15 09:07:58;;;;;;;2.70;1.10;;;14.10;99.90;;;;;;4988069;28;20058;-92
2024/03/15 09:10:27;;;;;;;5.38;1.92;;;14.20;99.90;;;;;;5007486;28;20152;-91
2024/03/15 09:12:54;;;;;;;4.05;1.60;;;14.10;99.90;;;;;;4955300;28;20603;-92
2024/03/15 09:15:22;;;;;;;3.03;1.38;;;14.10;99.90;;;;;;4970644;28;20061;-92
2024/03/15 09:17:52;;;;;;;3.78;1.35;;;14.10;99.90;;;;;;4955179;28;20054;-91
2024/03/15 09:20:20;;;;;;;4.38;1.80;;;14.30;99.90;;;;;;4988945;28;20050;-93
2024/03/15 09:22:49;;;;;;;3.97;1.33;;;14.30;99.90;;;;;;4991671;28;20054;-92
2024/03/15 09:25:26;;;;;;;1.85;1.10;;;14.30;99.90;;;;;;4988912;28;20081;-91
2024/03/15 09:28:00;;;;;;;3.15;1.30;;;14.20;99.90;;;;;;5018458;28;20097;-96
2024/03/15 09:30:46;;;;;;;6.75;2.60;;;14.10;99.90;;;;;;5029349;28;20104;-96
2024/03/15 09:33:34;;;;;;;1.77;1.10;;;14.10;99.90;;;;;;5014251;28;20440;-96
2024/03/15 09:36:04;;;;;;;4.05;1.50;;;14.10;99.90;;;;;;5025053;28;20277;-96
2024/03/15 09:38:34;;;;;;;4.75;1.65;;;14.10;99.90;;;;;;4997566;28;20054;-94
2024/03/15 09:41:07;;;;;;;2.13;1.10;;;14.20;99.90;;;;;;5007537;28;20451;-91
2024/03/15 09:43:39;;;;;;;4.35;1.40;;;14.20;99.90;;;;;;5006208;28;20140;-92
2024/03/15 09:46:20;;;;;;;3.33;1.60;;;14.20;99.90;;;;;;4984427;28;20045;-93
2024/03/15 09:48:52;;;;;;;4.07;1.70;;;14.30;99.90;;;;;;4992999;28;20145;-92
2024/03/15 09:51:22;;;;;;;4.43;1.70;;;14.50;99.90;;;;;;4992552;28;20350;-92
2024/03/15 09:53:51;;;;;;;5.25;1.40;;;14.60;99.90;;;;;;4993505;28;20132;-92
2024/03/15 09:56:19;;;;;;;3.05;1.45;;;14.90;99.90;;;;;;4973871;28;20485;-92
2024/03/15 09:58:51;;;;;;;4.63;1.80;;;15.00;99.90;;;;;;4958872;28;20070;-92
2024/03/15 10:01:22;;;;;;;3.85;1.30;;;15.20;99.90;;;;;;4989048;28;20050;-93
2024/03/15 10:03:59;;;;;;;6.15;2.05;;;15.20;99.90;;;;;;4985880;28;20458;-93
2024/03/15 10:06:27;;;;;;;6.57;2.53;;;15.30;99.90;;;;;;4989434;28;20783;-92
2024/03/15 10:09:12;;;;;;;8.48;2.78;;;15.30;99.90;;;;;;4993640;28;20076;-96
2024/03/15 10:11:44;;;;;;;4.30;1.50;;;15.20;99.90;;;;;;5011099;28;20524;-96
2024/03/15 10:14:12;;;;;;;4.88;1.63;;;15.20;99.90;;;;;;4994581;28;20453;-92
2024/03/15 10:16:54;;;;;;;4.68;2.30;;;15.10;99.90;;;;;;4977273;28;20060;-92
2024/03/15 10:19:25;;;;;;;3.10;1.65;;;15.00;99.90;;;;;;4990947;28;20045;-94
2024/03/15 10:21:59;;;;;;;3.08;1.23;;;15.20;99.90;;;;;;4991339;28;20100;-96
2024/03/15 10:24:32;;;;;;;3.10;1.30;;;15.30;99.90;;;;;;4989053;28;20054;-95
2024/03/15 10:27:00;;;;;;;;;;;15.30;99.90;;;;;;5012487;28;20070;-96
2024/03/15 10:29:32;;;;;;;3.05;1.25;;;15.30;99.90;;;;;;4987773;28;20396;-96
2024/03/15 10:32:03;;;;;;;3.47;1.15;;;15.30;99.90;;;;;;5004097;28;20085;-96
2024/03/15 10:34:32;;;;;;;4.82;1.55;;;15.30;99.90;;;;;;5022828;28;20085;-96
2024/03/15 10:37:02;;;;;;;3.95;2.05;;;15.20;99.90;;;;;;5006255;28;20060;-96
2024/03/15 10:39:33;;;;;;;4.72;1.30;;;15.10;99.90;;;;;;4987695;28;20057;-94
2024/03/15 10:42:04;;;;;;;3.45;1.55;;;15.10;99.90;;;;;;5015642;28;20049;-95
2024/03/15 10:44:32;;;;;;;3.63;1.40;;;15.20;99.90;;;;;;4991303;28;20082;-96
2024/03/15 10:47:01;;;;;;;2.65;1.25;;;15.30;99.90;;;;;;4977895;28;20054;-96
2024/03/15 10:49:49;;;;;;;3.67;1.43;;;15.40;99.90;;;;;;4977763;28;20129;-96
2024/03/15 10:52:18;;;;;;;1.83;1.17;;;15.50;99.90;;;;;;4978559;28;20560;-96
2024/03/15 10:54:49;;;;;;;3.30;1.42;;;15.50;99.90;;;;;;4991518;28;20046;-95
2024/03/15 10:57:18;;;;;;;3.50;1.75;;;15.60;99.90;;;;;;4980228;28;20124;-96
2024/03/15 10:59:45;;;;;;;3.15;1.50;;;15.60;99.90;;;;;;4991352;28;20669;-95
2024/03/15 11:02:12;;;;;;;4.15;1.48;;;15.70;99.90;;;;;;4994218;28;20547;-95
2024/03/15 11:04:39;;;;;;;2.72;1.10;;;15.70;99.90;;;;;;5014438;28;20077;-95
2024/03/15 11:07:20;;;;;;;3.35;1.83;;;16.00;99.90;;;;;;4980712;28;20038;-96
2024/03/15 11:10:13;;;;;;;4.22;1.50;;;16.20;91.40;;;;;;5023815;28;20038;-96
2024/03/15 11:12:42;;;;;;;7.15;2.10;;;16.10;64.90;;;;;;5023768;28;20052;-96
2024/03/15 11:15:19;;;;;;;5.03;2.30;;;15.80;44.10;;;;;;4986274;28;20073;-96
2024/03/15 11:18:04;;;;;;;4.28;1.73;;;15.60;58.50;;;;;;5031124;28;20049;-96
2024/03/15 11:20:53;;;;;;;3.25;1.65;;;15.40;84.70;;;;;;5018362;28;20061;-96
2024/03/15 11:23:23;;;;;;;5.50;1.70;;;15.20;95.00;;;;;;5019587;28;20045;-96
2024/03/15 11:26:10;;;;;;;3.90;1.30;;;15.10;99.90;;;;;;5004772;28;20060;-95
2024/03/15 11:28:37;;;;;;;4.30;1.55;;;15.00;99.90;;;;;;5010610;28;20125;-96
2024/03/15 11:31:24;;;;;;;2.30;1.33;;;15.10;94.00;;;;;;5025353;28;20073;-95
2024/03/15 11:34:19;;;;;;;3.65;1.40;;;15.40;77.10;;;;;;5009637;28;20035;-96
2024/03/15 11:36:47;;;;;;;4.43;1.52;;;15.60;59.50;;;;;;4993136;28;20112;-94
2024/03/15 11:39:19;;;;;;;4.38;1.75;;;15.80;48.40;;;;;;4977053;28;20050;-89
2024/03/15 11:41:46;;;;;;;4.40;1.73;;;15.90;45.00;;;;;;4995036;28;20054;-94
2024/03/15 11:44:15;;;;;;;2.97;1.67;;;16.00;23.60;;;;;;4975815;28;20094;-95
2024/03/15 11:46:50;;;;;;;3.75;1.45;;;16.00;24.10;;;;;;4964626;28;20054;-96
2024/03/15 11:49:18;;;;;;;3.22;1.40;;;16.00;21.80;;;;;;4997961;28;20072;-95
2024/03/15 11:51:57;;;;;;;2.72;1.58;;;16.10;17.40;;;;;;4976807;28;20052;-95
2024/03/15 11:54:32;;;;;;;2.70;1.23;;;16.30;14.50;;;;;;4975870;28;20092;-95
2024/03/15 11:57:01;;;;;;;2.95;1.27;;;16.40;13.50;;;;;;5005535;28;20133;-95
2024/03/15 11:59:31;;;;;;;3.42;1.30;;;16.50;17.90;;;;;;4990852;28;20069;-95
2024/03/15 12:02:03;;;;;;;2.45;1.30;;;16.70;10.70;;;;;;4990003;28;20046;-96
2024/03/15 12:04:33;;;;;;;1.83;1.10;;;16.90;6.00;;;;;;4994049;28;20069;-96
2024/03/15 12:07:09;;;;;;;4.40;1.75;;;17.10;1.00;;;;;;4981885;28;20054;-93
2024/03/15 12:09:42;;;;;;;5.03;2.05;;;17.20;1.00;;;;;;4991122;28;20049;-94
2024/03/15 12:12:21;;;;;;;4.07;1.95;;;17.10;1.00;;;;;;5008146;28;20045;-94
2024/03/15 12:14:49;;;;;;;5.55;2.00;;;16.90;1.00;;;;;;5007578;28;20050;-93
2024/03/15 12:17:29;;;;;;;5.95;2.22;;;16.70;1.00;;;;;;4991749;28;20074;-95
2024/03/15 12:19:59;;;;;;;4.43;1.75;;;16.50;1.00;;;;;;5009923;28;20642;-93
2024/03/15 12:22:35;;;;;;;5.00;1.85;;;16.60;1.00;;;;;;4993828;28;20050;-96
2024/03/15 12:25:03;;;;;;;2.95;1.52;;;16.70;1.00;;;;;;4981152;28;20766;-92
2024/03/15 12:27:35;;;;;;;3.15;1.80;;;17.00;1.00;;;;;;4988373;28;20056;-93
2024/03/15 12:30:05;;;;;;;3.10;1.30;;;17.00;1.00;;;;;;4987034;28;20046;-92
2024/03/15 12:32:36;;;;;;;2.60;1.05;;;17.10;1.00;;;;;;4990456;28;20054;-94
2024/03/15 12:35:13;;;;;;;3.42;1.30;;;17.00;1.00;;;;;;4988178;28;20172;-96
2024/03/15 12:37:52;;;;;;;2.83;1.25;;;17.00;1.00;;;;;;4972192;28;20565;-89
2024/03/15 12:40:30;;;;;;;3.55;1.45;;;16.90;1.00;;;;;;4982160;28;20054;-95
2024/03/15 12:43:05;;;;;;;2.47;1.30;;;17.10;1.00;;;;;;4980389;28;20061;-92
2024/03/15 12:45:31;;;;;;;4.97;1.70;;;17.50;1.00;;;;;;4964303;28;20065;-92
2024/03/15 12:48:02;;;;;;;3.40;1.85;;;17.90;1.00;;;;;;4970665;28;20562;-92
2024/03/15 12:50:31;;;;;;;4.05;1.73;;;18.30;1.00;;;;;;4991790;28;20058;-92
2024/03/15 12:53:01;;;;;;;4.93;1.70;;;18.60;1.00;;;;;;4996320;28;20060;-92
2024/03/15 12:55:32;;;;;;;3.92;1.88;;;18.50;1.00;;;;;;4991839;28;20072;-90
2024/03/15 12:58:02;;;;;;;5.15;2.10;;;18.40;1.00;;;;;;5012312;28;20075;-95
2024/03/15 13:00:29;;;;;;;4.88;1.92;;;18.40;1.00;;;;;;4994101;28;20519;-92
2024/03/15 13:03:08;;;;;;;4.35;1.60;;;18.50;1.00;;;;;;4996770;28;20054;-95
2024/03/15 13:05:41;;;;;;;5.32;2.00;;;18.90;1.00;;;;;;4982063;28;20109;-95
2024/03/15 13:08:09;;;;;;;5.35;2.53;;;18.70;1.00;;;;;;4960329;28;20133;-94
2024/03/15 13:10:36;;;;;;;4.43;2.30;;;18.70;1.00;;;;;;4959607;28;20134;-91
2024/03/15 13:13:06;;;;;;;3.72;1.38;;;18.70;1.00;;;;;;4978190;28;20138;-89
2024/03/15 13:15:34;;;;;;;5.55;2.08;;;18.90;1.00;;;;;;4959430;28;20132;-90